Česky Dansk Deutsch English Español Suomi Français Magyar Italiano Nederlands norsk Polski Português svenska Türkçe

 

Het Weer

Jacareacanga (Brazilië)

21:45, 19 augustus 2016 (GMT)

NWNNE
WE
SWSSE
Home            
Jacareacanga Itaituba Manicore Manaus Aeroporto Alta Floresta Aeroporto Eduardo Gomes International Cachimbo Santarem-Aeroporto Altamira Porto Velho Aeroporto Vilhena Aeroporto Barcelos Tefe Carajas / Maraba Tucurui Maraba Conceicao Do Araguaia Guayaramerin Magdalena Cuiaba Aeroporto Riberalta Boa Vista, Boa Vista Intl San Joaquin

Om een weerknop op uw website of weblog te plaatsen, copieer onderstaande code en plak die in uw pagina. In het eerste vakje staat HTML-code, in het tweede vakje UBB-code.


Add to Google

Details

Visibility:Greater than 10000 m, 10 km, 32800 ft, 6.2 miles
Clouds:CAVOC
Temperature:29°C, 84°F
Gefühlte Temperatur:37°C, 98°F
Dew-point:27°C, 81°F
Atmospheric pressure:1007 hPa, 755.3 mmHg, 29.74 inHg, 0.994 atm
Relative humidity:89.0 %
METAR:SBEK 192145Z 00000KT CAVOK 29/27 Q1007

Snelkoppelingen

Actuele weersinformatie van de hele wereld. Voeg locaties toe met het plus (+) symbool. Deze snelkoppelingen kunnen worden toegevoegd aan Google.

Lid van de Technetium groep

website free tracking
StatCounter NetStat W3C Validator

24-10-2018 04:58:38
astro.technetium.be money.technetium.be phote.technetium.be tafeltennistafel.technetium.be www.ligfiets.net